Terminal Aerodrome Forecast
Issued by NWS

Home | Current Version | Previous Version | Text Only | Print | Product List | Glossary On
Versions: 1 2 3 4 5 6 7 8 9 10 11 12 13 14 15 16 17 18 19 20 21 22 23
000
FTUS43 KDLH 250100 AAA
TAFHIB
TAF AMD
KHIB 250153Z 2502/2524 34016KT P6SM OVC020
     FM250600 29006KT P6SM SCT017
     FM251400 26003KT P6SM SCT010 BKN050=

USA.gov is the U.S. government's official web portal to all federal, state and local government web resources and services.